PWSweather.com
Personal Weather Stations
Station Observations
UWIDEPER1
Brown County, Depere, WI 54115

Brown CountyDepere, WI 54115

Lat: 44.44, Lon: -88.05

Elevation: 610

Station Type: Acurite 5in1

Latest ConditionsUpdated 7:40:01 PM CST Wednesday, Jan 16, 2019
Currently Today's Max Today's Min Today's Average
Temperature 11.5°F-11.4°C 30.4°F-0.9°C 11.5°F-11.4°C 20.5°F-6.4°C
Dew Point 8.1°F-13.3°C 25.5°F-3.6°C 7.3°F-13.7°C 13.3°F-10.4°C
Winds 1.2 mph ESE1.9 kmh ESE 11.5 mph -18.5 kmh - - 4.1 mph 6.6 kmh
Wind Gusts 1.2 mph1.9 kmh 15.0 mph24.1 kmh - -
Humidity 86% 86% 60% 74%
Pressure 30.36 in1028.1 mb 30.37 in1028.4 mb 30.01 in1016.3 mb -
Hour Temp Dew Point Humidity Winds Wind Gusts Pressure Precip Precip Rate Daily Precip Total
07:40 PM 11.5°F-11.4°C 8.1°F-13.3°C 86% 1.2 mph ESE1.9 kmh ESE 1.2 mph1.9 kmh 30.36 in1028.1 mb - 0.00 in0.0 mm 0.00 in0.0 mm
07:35 PM 11.5°F-11.4°C 8.1°F-13.3°C 86% 1.2 mph ESE1.9 kmh ESE 1.2 mph1.9 kmh 30.36 in1028.1 mb - 0.00 in0.0 mm 0.00 in0.0 mm
07:30 PM 11.5°F-11.4°C 8.1°F-13.3°C 86% Calm Calm 1.2 mph1.9 kmh 30.36 in1028.1 mb - 0.00 in0.0 mm 0.00 in0.0 mm
07:25 PM 11.8°F-11.2°C 8.5°F-13.1°C 86% Calm Calm -- 30.36 in1028.1 mb - 0.00 in0.0 mm 0.00 in0.0 mm
07:20 PM 12.2°F-11.0°C 8.8°F-12.9°C 86% Calm Calm -- 30.36 in1028.1 mb - 0.00 in0.0 mm 0.00 in0.0 mm
07:15 PM 12.2°F-11.0°C 8.8°F-12.9°C 86% Calm Calm -- 30.37 in1028.4 mb - 0.00 in0.0 mm 0.00 in0.0 mm
07:10 PM 11.5°F-11.4°C 7.3°F-13.7°C 83% Calm Calm -- 30.36 in1028.1 mb - 0.00 in0.0 mm 0.00 in0.0 mm
07:00 PM 11.8°F-11.2°C 7.7°F-13.5°C 83% Calm Calm -- 30.36 in1028.1 mb - 0.00 in0.0 mm 0.00 in0.0 mm
06:55 PM 12.0°F-11.1°C 7.8°F-13.4°C 83% Calm Calm -- 30.36 in1028.1 mb - 0.00 in0.0 mm 0.00 in0.0 mm
06:50 PM 12.4°F-10.9°C 7.7°F-13.5°C 81% Calm Calm -- 30.36 in1028.1 mb - 0.00 in0.0 mm 0.00 in0.0 mm
06:45 PM 12.6°F-10.8°C 7.8°F-13.4°C 81% Calm Calm -- 30.36 in1028.1 mb - 0.00 in0.0 mm 0.00 in0.0 mm
06:40 PM 12.9°F-10.6°C 8.7°F-12.9°C 83% Calm Calm -- 30.36 in1028.1 mb - 0.00 in0.0 mm 0.00 in0.0 mm
06:35 PM 13.6°F-10.2°C 10.2°F-12.1°C 86% Calm Calm -- 30.36 in1028.1 mb - 0.00 in0.0 mm 0.00 in0.0 mm
06:30 PM 13.5°F-10.3°C 9.3°F-12.6°C 83% Calm Calm -- 30.37 in1028.4 mb - 0.00 in0.0 mm 0.00 in0.0 mm
06:25 PM 13.5°F-10.3°C 8.7°F-12.9°C 81% Calm Calm -- 30.36 in1028.1 mb - 0.00 in0.0 mm 0.00 in0.0 mm
06:20 PM 13.5°F-10.3°C 8.7°F-12.9°C 81% Calm Calm -- 30.36 in1028.1 mb - 0.00 in0.0 mm 0.00 in0.0 mm
06:15 PM 13.3°F-10.4°C 8.5°F-13.1°C 81% 1.2 mph ESE1.9 kmh ESE 1.2 mph1.9 kmh 30.36 in1028.1 mb - 0.00 in0.0 mm 0.00 in0.0 mm
06:10 PM 13.1°F-10.5°C 8.4°F-13.1°C 81% 1.2 mph ESE1.9 kmh ESE 1.2 mph1.9 kmh 30.36 in1028.1 mb - 0.00 in0.0 mm 0.00 in0.0 mm
06:00 PM 13.7°F-10.2°C 9.2°F-12.7°C 82% Calm Calm -- 30.36 in1028.1 mb - 0.00 in0.0 mm 0.00 in0.0 mm
05:55 PM 13.6°F-10.2°C 8.3°F-13.2°C 79% Calm Calm -- 30.37 in1028.4 mb - 0.00 in0.0 mm 0.00 in0.0 mm
05:50 PM 14.0°F-10.0°C 7.9°F-13.4°C 76% Calm Calm -- 30.37 in1028.4 mb - 0.00 in0.0 mm 0.00 in0.0 mm
05:45 PM 14.4°F-9.8°C 8.2°F-13.2°C 76% Calm Calm -- 30.36 in1028.1 mb - 0.00 in0.0 mm 0.00 in0.0 mm
05:40 PM 14.5°F-9.7°C 8.4°F-13.1°C 76% Calm Calm -- 30.36 in1028.1 mb - 0.00 in0.0 mm 0.00 in0.0 mm
05:35 PM 14.7°F-9.6°C 8.5°F-13.1°C 76% 1.2 mph ESE1.9 kmh ESE 1.2 mph1.9 kmh 30.36 in1028.1 mb - 0.00 in0.0 mm 0.00 in0.0 mm
05:30 PM 14.7°F-9.6°C 8.2°F-13.2°C 75% 1.2 mph ESE1.9 kmh ESE 1.2 mph1.9 kmh 30.36 in1028.1 mb - 0.00 in0.0 mm 0.00 in0.0 mm
05:25 PM 14.7°F-9.6°C 8.2°F-13.2°C 75% Calm Calm 1.2 mph1.9 kmh 30.36 in1028.1 mb - 0.00 in0.0 mm 0.00 in0.0 mm
05:20 PM 15.3°F-9.3°C 8.8°F-12.9°C 75% Calm Calm -- 30.36 in1028.1 mb - 0.00 in0.0 mm 0.00 in0.0 mm
05:15 PM 15.6°F-9.1°C 8.5°F-13.1°C 73% 1.2 mph ESE1.9 kmh ESE 1.2 mph1.9 kmh 30.36 in1028.1 mb - 0.00 in0.0 mm 0.00 in0.0 mm
05:10 PM 16.2°F-8.8°C 9.0°F-12.8°C 73% 1.2 mph ESE1.9 kmh ESE -- 30.36 in1028.1 mb - 0.00 in0.0 mm 0.00 in0.0 mm
05:00 PM 16.9°F-8.4°C 8.8°F-12.9°C 70% Calm Calm -- 30.35 in1027.8 mb - 0.00 in0.0 mm 0.00 in0.0 mm
04:55 PM 16.9°F-8.4°C 8.8°F-12.9°C 70% 1.2 mph ESE1.9 kmh ESE 2.3 mph3.7 kmh 30.35 in1027.8 mb - 0.00 in0.0 mm 0.00 in0.0 mm
04:50 PM 16.9°F-8.4°C 8.8°F-12.9°C 70% 1.2 mph ESE1.9 kmh ESE 1.2 mph1.9 kmh 30.35 in1027.8 mb - 0.00 in0.0 mm 0.00 in0.0 mm
04:45 PM 17.4°F-8.1°C 9.3°F-12.6°C 70% 1.2 mph ESE1.9 kmh ESE 1.2 mph1.9 kmh 30.36 in1028.1 mb - 0.00 in0.0 mm 0.00 in0.0 mm
04:40 PM 17.8°F-7.9°C 9.3°F-12.6°C 69% 1.2 mph ESE1.9 kmh ESE 1.2 mph1.9 kmh 30.36 in1028.1 mb - 0.00 in0.0 mm 0.00 in0.0 mm
04:35 PM 18.1°F-7.7°C 9.7°F-12.4°C 69% 1.2 mph ESE1.9 kmh ESE 2.3 mph3.7 kmh 30.36 in1028.1 mb - 0.00 in0.0 mm 0.00 in0.0 mm
04:30 PM 18.5°F-7.5°C 9.7°F-12.4°C 68% 1.2 mph ESE1.9 kmh ESE 2.3 mph3.7 kmh 30.36 in1028.1 mb - 0.00 in0.0 mm 0.00 in0.0 mm
04:25 PM 18.9°F-7.3°C 10.0°F-12.2°C 68% 2.3 mph ESE3.7 kmh ESE 3.5 mph5.6 kmh 30.36 in1028.1 mb - 0.00 in0.0 mm 0.00 in0.0 mm
04:20 PM 19.0°F-7.2°C 10.2°F-12.1°C 68% 2.3 mph ESE3.7 kmh ESE 3.5 mph5.6 kmh 30.36 in1028.1 mb - 0.00 in0.0 mm 0.00 in0.0 mm
04:15 PM 19.2°F-7.1°C 9.3°F-12.6°C 65% 2.3 mph ESE3.7 kmh ESE 3.5 mph5.6 kmh 30.36 in1028.1 mb - 0.00 in0.0 mm 0.00 in0.0 mm
04:10 PM 19.8°F-6.8°C 9.9°F-12.3°C 65% 2.3 mph ESE3.7 kmh ESE 2.3 mph3.7 kmh 30.36 in1028.1 mb - 0.00 in0.0 mm 0.00 in0.0 mm
04:00 PM 19.8°F-6.8°C 10.2°F-12.1°C 66% 2.3 mph ESE3.7 kmh ESE 3.5 mph5.6 kmh 30.35 in1027.8 mb - 0.00 in0.0 mm 0.00 in0.0 mm
03:55 PM 19.8°F-6.8°C 10.2°F-12.1°C 66% 2.3 mph ESE3.7 kmh ESE 3.5 mph5.6 kmh 30.35 in1027.8 mb - 0.00 in0.0 mm 0.00 in0.0 mm
03:50 PM 19.8°F-6.8°C 9.9°F-12.3°C 65% 2.3 mph ESE3.7 kmh ESE 3.5 mph5.6 kmh 30.35 in1027.8 mb - 0.00 in0.0 mm 0.00 in0.0 mm
03:45 PM 20.6°F-6.3°C 10.7°F-11.8°C 65% 2.3 mph ESE3.7 kmh ESE 3.5 mph5.6 kmh 30.35 in1027.8 mb - 0.00 in0.0 mm 0.00 in0.0 mm
03:40 PM 20.8°F-6.2°C 10.5°F-11.9°C 64% 2.3 mph ESE3.7 kmh ESE 3.5 mph5.6 kmh 30.36 in1028.1 mb - 0.00 in0.0 mm 0.00 in0.0 mm
03:35 PM 20.6°F-6.3°C 10.7°F-11.8°C 65% 1.2 mph ESE1.9 kmh ESE 2.3 mph3.7 kmh 30.36 in1028.1 mb - 0.00 in0.0 mm 0.00 in0.0 mm
03:30 PM 20.5°F-6.4°C 9.9°F-12.3°C 63% 2.3 mph ESE3.7 kmh ESE 2.3 mph3.7 kmh 30.35 in1027.8 mb - 0.00 in0.0 mm 0.00 in0.0 mm
03:25 PM 20.7°F-6.3°C 10.0°F-12.2°C 63% 2.3 mph ESE3.7 kmh ESE 2.3 mph3.7 kmh 30.35 in1027.8 mb - 0.00 in0.0 mm 0.00 in0.0 mm
03:20 PM 21.2°F-6.0°C 10.6°F-11.9°C 63% 2.3 mph ESE3.7 kmh ESE 3.5 mph5.6 kmh 30.35 in1027.8 mb - 0.00 in0.0 mm 0.00 in0.0 mm
03:15 PM 21.2°F-6.0°C 10.6°F-11.9°C 63% 2.3 mph ESE3.7 kmh ESE 3.5 mph5.6 kmh 30.35 in1027.8 mb - 0.00 in0.0 mm 0.00 in0.0 mm
03:10 PM 21.5°F-5.8°C 10.1°F-12.2°C 61% 2.3 mph ESE3.7 kmh ESE 3.5 mph5.6 kmh 30.35 in1027.8 mb - 0.00 in0.0 mm 0.00 in0.0 mm
03:00 PM 21.7°F-5.7°C 10.3°F-12.1°C 61% 2.3 mph ESE3.7 kmh ESE 3.5 mph5.6 kmh 30.35 in1027.8 mb - 0.00 in0.0 mm 0.00 in0.0 mm
02:55 PM 21.9°F-5.6°C 10.5°F-11.9°C 61% 1.2 mph ESE1.9 kmh ESE 2.3 mph3.7 kmh 30.36 in1028.1 mb - 0.00 in0.0 mm 0.00 in0.0 mm
02:50 PM 21.6°F-5.8°C 9.8°F-12.3°C 60% 2.3 mph ESE3.7 kmh ESE 2.3 mph3.7 kmh 30.36 in1028.1 mb - 0.00 in0.0 mm 0.00 in0.0 mm
02:45 PM 21.6°F-5.8°C 9.8°F-12.3°C 60% 2.3 mph ESE3.7 kmh ESE 3.5 mph5.6 kmh 30.35 in1027.8 mb - 0.00 in0.0 mm 0.00 in0.0 mm
02:40 PM 21.5°F-5.8°C 10.1°F-12.2°C 61% 2.3 mph ESE3.7 kmh ESE 2.3 mph3.7 kmh 30.35 in1027.8 mb - 0.00 in0.0 mm 0.00 in0.0 mm
02:35 PM 21.7°F-5.7°C 10.3°F-12.1°C 61% 3.5 mph ESE5.6 kmh ESE 4.6 mph7.4 kmh 30.36 in1028.1 mb - 0.00 in0.0 mm 0.00 in0.0 mm
02:30 PM 21.9°F-5.6°C 10.5°F-11.9°C 61% 3.5 mph ESE5.6 kmh ESE 3.5 mph5.6 kmh 30.35 in1027.8 mb - 0.00 in0.0 mm 0.00 in0.0 mm
02:25 PM 21.9°F-5.6°C 10.5°F-11.9°C 61% 2.3 mph ESE3.7 kmh ESE 2.3 mph3.7 kmh 30.36 in1028.1 mb - 0.00 in0.0 mm 0.00 in0.0 mm
02:20 PM 21.7°F-5.7°C 10.3°F-12.1°C 61% 2.3 mph ESE3.7 kmh ESE 2.3 mph3.7 kmh 30.36 in1028.1 mb - 0.00 in0.0 mm 0.00 in0.0 mm
02:15 PM 21.3°F-5.9°C 10.0°F-12.2°C 61% 2.3 mph ESE3.7 kmh ESE 3.5 mph5.6 kmh 30.36 in1028.1 mb - 0.00 in0.0 mm 0.00 in0.0 mm
02:10 PM 21.4°F-5.9°C 10.7°F-11.8°C 63% 2.3 mph ESE3.7 kmh ESE 3.5 mph5.6 kmh 30.35 in1027.8 mb - 0.00 in0.0 mm 0.00 in0.0 mm
02:00 PM 20.7°F-6.3°C 10.0°F-12.2°C 63% 3.5 mph ESE5.6 kmh ESE 3.5 mph5.6 kmh 30.35 in1027.8 mb - 0.00 in0.0 mm 0.00 in0.0 mm
01:55 PM 21.0°F-6.1°C 10.4°F-12.0°C 63% 2.3 mph ESE3.7 kmh ESE 3.5 mph5.6 kmh 30.34 in1027.4 mb - 0.00 in0.0 mm 0.00 in0.0 mm
01:50 PM 20.7°F-6.3°C 10.0°F-12.2°C 63% 2.3 mph ESE3.7 kmh ESE 3.5 mph5.6 kmh 30.35 in1027.8 mb - 0.00 in0.0 mm 0.00 in0.0 mm
01:45 PM 20.5°F-6.4°C 10.6°F-11.9°C 65% 2.3 mph ESE3.7 kmh ESE 2.3 mph3.7 kmh 30.35 in1027.8 mb - 0.00 in0.0 mm 0.00 in0.0 mm
01:40 PM 19.8°F-6.8°C 9.2°F-12.7°C 63% 3.5 mph ESE5.6 kmh ESE 3.5 mph5.6 kmh 30.35 in1027.8 mb - 0.00 in0.0 mm 0.00 in0.0 mm
01:35 PM 20.8°F-6.2°C 10.1°F-12.2°C 63% 2.3 mph ESE3.7 kmh ESE 3.5 mph5.6 kmh 30.34 in1027.4 mb - 0.00 in0.0 mm 0.00 in0.0 mm
01:30 PM 20.6°F-6.3°C 10.0°F-12.2°C 63% 2.3 mph ESE3.7 kmh ESE 2.3 mph3.7 kmh 30.35 in1027.8 mb - 0.00 in0.0 mm 0.00 in0.0 mm
01:25 PM 20.7°F-6.3°C 10.1°F-12.2°C 63% 3.5 mph NW5.6 kmh NW 3.5 mph5.6 kmh 30.34 in1027.4 mb - 0.00 in0.0 mm 0.00 in0.0 mm
01:20 PM 21.2°F-6.0°C 10.6°F-11.9°C 63% 3.5 mph NE5.6 kmh NE 3.5 mph5.6 kmh 30.34 in1027.4 mb - 0.00 in0.0 mm 0.00 in0.0 mm
01:15 PM 20.7°F-6.3°C 10.8°F-11.8°C 65% 3.5 mph E5.6 kmh E 4.6 mph7.4 kmh 30.34 in1027.4 mb - 0.00 in0.0 mm 0.00 in0.0 mm
01:10 PM 21.3°F-5.9°C 10.7°F-11.8°C 63% 3.5 mph E5.6 kmh E 3.5 mph5.6 kmh 30.34 in1027.4 mb - 0.00 in0.0 mm 0.00 in0.0 mm
01:00 PM 20.7°F-6.3°C 10.5°F-11.9°C 64% 3.5 mph NE5.6 kmh NE 3.5 mph5.6 kmh 30.34 in1027.4 mb - 0.00 in0.0 mm 0.00 in0.0 mm
12:55 PM 21.2°F-6.0°C 10.6°F-11.9°C 63% 4.6 mph NE7.4 kmh NE 3.5 mph5.6 kmh 30.35 in1027.8 mb - 0.00 in0.0 mm 0.00 in0.0 mm
12:50 PM 21.4°F-5.9°C 10.8°F-11.8°C 63% 2.3 mph ESE3.7 kmh ESE 3.5 mph5.6 kmh 30.35 in1027.8 mb - 0.00 in0.0 mm 0.00 in0.0 mm
12:45 PM 20.5°F-6.4°C 9.9°F-12.3°C 63% 3.5 mph ESE5.6 kmh ESE 3.5 mph5.6 kmh 30.34 in1027.4 mb - 0.00 in0.0 mm 0.00 in0.0 mm
12:40 PM 21.2°F-6.0°C 10.6°F-11.9°C 63% 2.3 mph N3.7 kmh N 4.6 mph7.4 kmh 30.34 in1027.4 mb - 0.00 in0.0 mm 0.00 in0.0 mm
12:35 PM 21.9°F-5.6°C 11.2°F-11.6°C 63% 2.3 mph E3.7 kmh E 3.5 mph5.6 kmh 30.34 in1027.4 mb - 0.00 in0.0 mm 0.00 in0.0 mm
12:30 PM 20.7°F-6.3°C 10.0°F-12.2°C 63% 3.5 mph E5.6 kmh E 2.3 mph3.7 kmh 30.35 in1027.8 mb - 0.00 in0.0 mm 0.00 in0.0 mm
12:25 PM 20.5°F-6.4°C 9.9°F-12.3°C 63% 3.5 mph NE5.6 kmh NE 5.8 mph9.3 kmh 30.35 in1027.8 mb - 0.00 in0.0 mm 0.00 in0.0 mm
12:20 PM 20.5°F-6.4°C 9.9°F-12.3°C 63% 2.3 mph E3.7 kmh E 2.3 mph3.7 kmh 30.35 in1027.8 mb - 0.00 in0.0 mm 0.00 in0.0 mm
12:15 PM 20.5°F-6.4°C 10.3°F-12.1°C 64% 3.5 mph ENE5.6 kmh ENE 3.5 mph5.6 kmh 30.35 in1027.8 mb - 0.00 in0.0 mm 0.00 in0.0 mm
12:10 PM 20.7°F-6.3°C 10.4°F-12.0°C 64% 2.3 mph N3.7 kmh N 3.5 mph5.6 kmh 30.35 in1027.8 mb - 0.00 in0.0 mm 0.00 in0.0 mm
12:00 PM 20.1°F-6.6°C 10.2°F-12.1°C 65% 3.5 mph N5.6 kmh N 6.9 mph11.1 kmh 30.35 in1027.8 mb - 0.00 in0.0 mm 0.00 in0.0 mm
11:55 AM 19.9°F-6.7°C 10.1°F-12.2°C 65% 3.5 mph NE5.6 kmh NE 5.8 mph9.3 kmh 30.36 in1028.1 mb - 0.00 in0.0 mm 0.00 in0.0 mm
11:50 AM 20.1°F-6.6°C 10.2°F-12.1°C 65% 3.5 mph N5.6 kmh N 5.8 mph9.3 kmh 30.35 in1027.8 mb - 0.00 in0.0 mm 0.00 in0.0 mm
11:45 AM 19.8°F-6.8°C 9.9°F-12.3°C 65% 4.6 mph NE7.4 kmh NE 3.5 mph5.6 kmh 30.35 in1027.8 mb - 0.00 in0.0 mm 0.00 in0.0 mm
11:40 AM 20.1°F-6.6°C 10.6°F-11.9°C 66% 3.5 mph NW5.6 kmh NW 5.8 mph9.3 kmh 30.35 in1027.8 mb - 0.00 in0.0 mm 0.00 in0.0 mm
11:35 AM 19.9°F-6.7°C 11.1°F-11.6°C 68% 4.6 mph E7.4 kmh E 3.5 mph5.6 kmh 30.37 in1028.4 mb - 0.00 in0.0 mm 0.00 in0.0 mm
11:30 AM 19.7°F-6.8°C 10.2°F-12.1°C 66% 4.6 mph NW7.4 kmh NW 6.9 mph11.1 kmh 30.36 in1028.1 mb - 0.00 in0.0 mm 0.00 in0.0 mm
11:25 AM 20.4°F-6.4°C 10.9°F-11.7°C 66% 3.5 mph 5.6 kmh 3.5 mph5.6 kmh 30.35 in1027.8 mb - 0.00 in0.0 mm 0.00 in0.0 mm
11:20 AM 20.5°F-6.4°C 11.0°F-11.7°C 66% 3.5 mph NE5.6 kmh NE 4.6 mph7.4 kmh 30.36 in1028.1 mb - 0.00 in0.0 mm 0.00 in0.0 mm
11:15 AM 20.1°F-6.6°C 11.2°F-11.6°C 68% 3.5 mph NNE5.6 kmh NNE 3.5 mph5.6 kmh 30.36 in1028.1 mb - 0.00 in0.0 mm 0.00 in0.0 mm
11:10 AM 19.9°F-6.7°C 11.1°F-11.6°C 68% 3.5 mph E5.6 kmh E 3.5 mph5.6 kmh 30.36 in1028.1 mb - 0.00 in0.0 mm 0.00 in0.0 mm
11:00 AM 19.8°F-6.8°C 10.2°F-12.1°C 66% 3.5 mph NW5.6 kmh NW 9.2 mph14.8 kmh 30.37 in1028.4 mb - 0.00 in0.0 mm 0.00 in0.0 mm
10:55 AM 19.8°F-6.8°C 10.9°F-11.7°C 68% 4.6 mph N7.4 kmh N 3.5 mph5.6 kmh 30.35 in1027.8 mb - 0.00 in0.0 mm 0.00 in0.0 mm
10:50 AM 19.7°F-6.8°C 11.5°F-11.4°C 70% 3.5 mph N5.6 kmh N 4.6 mph7.4 kmh 30.36 in1028.1 mb - 0.00 in0.0 mm 0.00 in0.0 mm
10:45 AM 19.8°F-6.8°C 10.9°F-11.7°C 68% 5.8 mph NE9.3 kmh NE 9.2 mph14.8 kmh 30.36 in1028.1 mb - 0.00 in0.0 mm 0.00 in0.0 mm
10:40 AM 19.7°F-6.8°C 10.9°F-11.7°C 68% 4.6 mph NNW7.4 kmh NNW 4.6 mph7.4 kmh 30.36 in1028.1 mb - 0.00 in0.0 mm 0.00 in0.0 mm
10:35 AM 19.9°F-6.7°C 11.0°F-11.7°C 68% 3.5 mph N5.6 kmh N 5.8 mph9.3 kmh 30.37 in1028.4 mb - 0.00 in0.0 mm 0.00 in0.0 mm
10:30 AM 20.5°F-6.4°C 11.6°F-11.3°C 68% 3.5 mph E5.6 kmh E 2.3 mph3.7 kmh 30.36 in1028.1 mb - 0.00 in0.0 mm 0.00 in0.0 mm
10:25 AM 19.2°F-7.1°C 11.1°F-11.6°C 70% 3.5 mph N5.6 kmh N 3.5 mph5.6 kmh 30.36 in1028.1 mb - 0.00 in0.0 mm 0.00 in0.0 mm
10:20 AM 19.1°F-7.2°C 10.6°F-11.9°C 69% 5.8 mph NW9.3 kmh NW 4.6 mph7.4 kmh 30.36 in1028.1 mb - 0.00 in0.0 mm 0.00 in0.0 mm
10:15 AM 19.8°F-6.8°C 11.6°F-11.3°C 70% 3.5 mph NNE5.6 kmh NNE 6.9 mph11.1 kmh 30.36 in1028.1 mb - 0.00 in0.0 mm 0.00 in0.0 mm
10:10 AM 19.1°F-7.2°C 10.9°F-11.7°C 70% 4.6 mph E7.4 kmh E 3.5 mph5.6 kmh 30.35 in1027.8 mb - 0.00 in0.0 mm 0.00 in0.0 mm
10:00 AM 19.5°F-6.9°C 11.6°F-11.3°C 71% 3.5 mph N5.6 kmh N 4.6 mph7.4 kmh 30.35 in1027.8 mb - 0.00 in0.0 mm 0.00 in0.0 mm
09:55 AM 18.1°F-7.7°C 10.3°F-12.1°C 71% 4.6 mph NW7.4 kmh NW 5.8 mph9.3 kmh 30.35 in1027.8 mb - 0.00 in0.0 mm 0.00 in0.0 mm
09:50 AM 18.1°F-7.7°C 10.0°F-12.2°C 70% 5.8 mph WNW9.3 kmh WNW 6.9 mph11.1 kmh 30.35 in1027.8 mb - 0.00 in0.0 mm 0.00 in0.0 mm
09:45 AM 18.1°F-7.7°C 10.0°F-12.2°C 70% 5.8 mph NE9.3 kmh NE 8.1 mph13.0 kmh 30.34 in1027.4 mb - 0.00 in0.0 mm 0.00 in0.0 mm
09:40 AM 18.0°F-7.8°C 9.9°F-12.3°C 70% 6.9 mph N11.1 kmh N 8.1 mph13.0 kmh 30.35 in1027.8 mb - 0.00 in0.0 mm 0.00 in0.0 mm
09:35 AM 17.9°F-7.8°C 9.8°F-12.3°C 70% 4.6 mph N7.4 kmh N 4.6 mph7.4 kmh 30.35 in1027.8 mb - 0.00 in0.0 mm 0.00 in0.0 mm
09:30 AM 17.4°F-8.1°C 9.6°F-12.4°C 71% 5.8 mph 9.3 kmh 10.4 mph16.7 kmh 30.34 in1027.4 mb - 0.00 in0.0 mm 0.00 in0.0 mm
09:25 AM 17.4°F-8.1°C 9.6°F-12.4°C 71% 5.8 mph N9.3 kmh N 5.8 mph9.3 kmh 30.33 in1027.1 mb - 0.00 in0.0 mm 0.00 in0.0 mm
09:20 AM 18.1°F-7.7°C 10.3°F-12.1°C 71% 5.8 mph NE9.3 kmh NE 6.9 mph11.1 kmh 30.33 in1027.1 mb - 0.00 in0.0 mm 0.00 in0.0 mm
09:15 AM 17.4°F-8.1°C 10.5°F-11.9°C 74% 5.8 mph NW9.3 kmh NW 10.4 mph16.7 kmh 30.33 in1027.1 mb - 0.00 in0.0 mm 0.00 in0.0 mm
09:10 AM 17.1°F-8.3°C 10.5°F-11.9°C 75% 5.8 mph WNW9.3 kmh WNW 6.9 mph11.1 kmh 30.33 in1027.1 mb - 0.00 in0.0 mm 0.00 in0.0 mm
09:00 AM 16.9°F-8.4°C 10.3°F-12.1°C 75% 5.8 mph N9.3 kmh N 8.1 mph13.0 kmh 30.33 in1027.1 mb - 0.00 in0.0 mm 0.00 in0.0 mm
08:55 AM 17.0°F-8.3°C 10.5°F-11.9°C 75% 4.6 mph NE7.4 kmh NE 4.6 mph7.4 kmh 30.32 in1026.8 mb - 0.00 in0.0 mm 0.00 in0.0 mm
08:50 AM 16.8°F-8.4°C 10.3°F-12.1°C 75% 3.5 mph N5.6 kmh N 9.2 mph14.8 kmh 30.32 in1026.8 mb - 0.00 in0.0 mm 0.00 in0.0 mm
08:45 AM 16.1°F-8.8°C 9.5°F-12.5°C 75% 3.5 mph NNW5.6 kmh NNW 5.8 mph9.3 kmh 30.31 in1026.4 mb - 0.00 in0.0 mm 0.00 in0.0 mm
08:40 AM 16.0°F-8.9°C 9.7°F-12.4°C 76% 4.6 mph 7.4 kmh 5.8 mph9.3 kmh 30.31 in1026.4 mb - 0.00 in0.0 mm 0.00 in0.0 mm
08:35 AM 15.8°F-9.0°C 9.6°F-12.4°C 76% 4.6 mph WNW7.4 kmh WNW 4.6 mph7.4 kmh 30.31 in1026.4 mb - 0.00 in0.0 mm 0.00 in0.0 mm
08:30 AM 15.8°F-9.0°C 9.6°F-12.4°C 76% 5.8 mph NW9.3 kmh NW 9.2 mph14.8 kmh 30.32 in1026.8 mb - 0.00 in0.0 mm 0.00 in0.0 mm
08:25 AM 15.8°F-9.0°C 9.6°F-12.4°C 76% 4.6 mph N7.4 kmh N 5.8 mph9.3 kmh 30.31 in1026.4 mb - 0.00 in0.0 mm 0.00 in0.0 mm
08:20 AM 15.8°F-9.0°C 9.6°F-12.4°C 76% 4.6 mph WNW7.4 kmh WNW 5.8 mph9.3 kmh 30.30 in1026.1 mb - 0.00 in0.0 mm 0.00 in0.0 mm
08:15 AM 15.6°F-9.1°C 9.4°F-12.6°C 76% 5.8 mph NNW9.3 kmh NNW 5.8 mph9.3 kmh 30.31 in1026.4 mb - 0.00 in0.0 mm 0.00 in0.0 mm
08:10 AM 15.1°F-9.4°C 9.5°F-12.5°C 78% 4.6 mph NW7.4 kmh NW 6.9 mph11.1 kmh 30.31 in1026.4 mb - 0.00 in0.0 mm 0.00 in0.0 mm
08:00 AM 14.9°F-9.5°C 9.6°F-12.4°C 79% 4.6 mph N7.4 kmh N 8.1 mph13.0 kmh 30.30 in1026.1 mb - 0.00 in0.0 mm 0.00 in0.0 mm
07:55 AM 14.9°F-9.5°C 9.8°F-12.3°C 80% 3.5 mph N5.6 kmh N 6.9 mph11.1 kmh 30.31 in1026.4 mb - 0.00 in0.0 mm 0.00 in0.0 mm
07:50 AM 14.9°F-9.5°C 9.8°F-12.3°C 80% 2.3 mph N3.7 kmh N 6.9 mph11.1 kmh 30.30 in1026.1 mb - 0.00 in0.0 mm 0.00 in0.0 mm
07:45 AM 14.9°F-9.5°C 9.8°F-12.3°C 80% 3.5 mph NNE5.6 kmh NNE 3.5 mph5.6 kmh 30.30 in1026.1 mb - 0.00 in0.0 mm 0.00 in0.0 mm
07:40 AM 14.9°F-9.5°C 9.8°F-12.3°C 80% 4.6 mph ENE7.4 kmh ENE 3.5 mph5.6 kmh 30.30 in1026.1 mb - 0.00 in0.0 mm 0.00 in0.0 mm
07:35 AM 15.1°F-9.4°C 10.0°F-12.2°C 80% 5.8 mph NE9.3 kmh NE 6.9 mph11.1 kmh 30.29 in1025.7 mb - 0.00 in0.0 mm 0.00 in0.0 mm
07:30 AM 15.1°F-9.4°C 9.8°F-12.3°C 79% 4.6 mph N7.4 kmh N 10.4 mph16.7 kmh 30.28 in1025.4 mb - 0.00 in0.0 mm 0.00 in0.0 mm
07:25 AM 15.3°F-9.3°C 9.9°F-12.3°C 79% 6.9 mph N11.1 kmh N 9.2 mph14.8 kmh 30.28 in1025.4 mb - 0.00 in0.0 mm 0.00 in0.0 mm
07:20 AM 15.3°F-9.3°C 10.2°F-12.1°C 80% 5.8 mph NNE9.3 kmh NNE 8.1 mph13.0 kmh 30.28 in1025.4 mb - 0.00 in0.0 mm 0.00 in0.0 mm
07:15 AM 15.5°F-9.2°C 10.5°F-11.9°C 80% 5.8 mph NE9.3 kmh NE 8.1 mph13.0 kmh 30.28 in1025.4 mb - 0.00 in0.0 mm 0.00 in0.0 mm
07:10 AM 15.6°F-9.1°C 10.5°F-11.9°C 80% 3.5 mph NE5.6 kmh NE 6.9 mph11.1 kmh 30.28 in1025.4 mb - 0.00 in0.0 mm 0.00 in0.0 mm
07:00 AM 16.0°F-8.9°C 10.6°F-11.9°C 79% 4.6 mph N7.4 kmh N 5.8 mph9.3 kmh 30.27 in1025.1 mb - 0.00 in0.0 mm 0.00 in0.0 mm
06:55 AM 16.2°F-8.8°C 10.8°F-11.8°C 79% 5.8 mph NNE9.3 kmh NNE 10.4 mph16.7 kmh 30.27 in1025.1 mb - 0.00 in0.0 mm 0.00 in0.0 mm
06:50 AM 16.2°F-8.8°C 10.8°F-11.8°C 79% 5.8 mph NW9.3 kmh NW 10.4 mph16.7 kmh 30.27 in1025.1 mb - 0.00 in0.0 mm 0.00 in0.0 mm
06:45 AM 16.3°F-8.7°C 11.0°F-11.7°C 79% 4.6 mph NE7.4 kmh NE 6.9 mph11.1 kmh 30.25 in1024.4 mb - 0.00 in0.0 mm 0.00 in0.0 mm
06:40 AM 16.9°F-8.4°C 11.5°F-11.4°C 79% 4.6 mph NE7.4 kmh NE 6.9 mph11.1 kmh 30.26 in1024.7 mb - 0.00 in0.0 mm 0.00 in0.0 mm
06:35 AM 17.1°F-8.3°C 11.7°F-11.3°C 79% 5.8 mph NE9.3 kmh NE 6.9 mph11.1 kmh 30.25 in1024.4 mb - 0.00 in0.0 mm 0.00 in0.0 mm
06:30 AM 17.4°F-8.1°C 11.7°F-11.3°C 78% 4.6 mph N7.4 kmh N 9.2 mph14.8 kmh 30.25 in1024.4 mb - 0.00 in0.0 mm 0.00 in0.0 mm
06:25 AM 17.4°F-8.1°C 11.1°F-11.6°C 76% 5.8 mph NNW9.3 kmh NNW 9.2 mph14.8 kmh 30.25 in1024.4 mb - 0.00 in0.0 mm 0.00 in0.0 mm
06:20 AM 17.8°F-7.9°C 11.5°F-11.4°C 76% 5.8 mph NW9.3 kmh NW 5.8 mph9.3 kmh 30.25 in1024.4 mb - 0.00 in0.0 mm 0.00 in0.0 mm
06:15 AM 17.8°F-7.9°C 11.5°F-11.4°C 76% 4.6 mph WNW7.4 kmh WNW 6.9 mph11.1 kmh 30.23 in1023.7 mb - 0.00 in0.0 mm 0.00 in0.0 mm
06:10 AM 18.0°F-7.8°C 11.4°F-11.4°C 75% 4.6 mph NNW7.4 kmh NNW 5.8 mph9.3 kmh 30.22 in1023.4 mb - 0.00 in0.0 mm 0.00 in0.0 mm
06:00 AM 18.5°F-7.5°C 11.8°F-11.2°C 75% 6.9 mph N11.1 kmh N 9.2 mph14.8 kmh 30.22 in1023.4 mb - 0.00 in0.0 mm 0.00 in0.0 mm
05:55 AM 18.7°F-7.4°C 12.1°F-11.1°C 75% 6.9 mph NNW11.1 kmh NNW 11.5 mph18.5 kmh 30.22 in1023.4 mb - 0.00 in0.0 mm 0.00 in0.0 mm
05:50 AM 19.2°F-7.1°C 12.9°F-10.6°C 76% 6.9 mph NW11.1 kmh NW 10.4 mph16.7 kmh 30.22 in1023.4 mb - 0.00 in0.0 mm 0.00 in0.0 mm
05:45 AM 19.3°F-7.1°C 12.9°F-10.6°C 76% 4.6 mph N7.4 kmh N 9.2 mph14.8 kmh 30.21 in1023.0 mb - 0.00 in0.0 mm 0.00 in0.0 mm
05:40 AM 19.8°F-6.8°C 13.4°F-10.3°C 76% 5.8 mph NW9.3 kmh NW 8.1 mph13.0 kmh 30.21 in1023.0 mb - 0.00 in0.0 mm 0.00 in0.0 mm
05:35 AM 20.1°F-6.6°C 14.4°F-9.8°C 78% 6.9 mph NW11.1 kmh NW 10.4 mph16.7 kmh 30.21 in1023.0 mb - 0.00 in0.0 mm 0.00 in0.0 mm
05:30 AM 20.7°F-6.3°C 14.9°F-9.5°C 78% 6.9 mph N11.1 kmh N 11.5 mph18.5 kmh 30.20 in1022.7 mb - 0.00 in0.0 mm 0.00 in0.0 mm
05:25 AM 21.2°F-6.0°C 15.7°F-9.1°C 79% 6.9 mph NNW11.1 kmh NNW 6.9 mph11.1 kmh 30.19 in1022.4 mb - 0.00 in0.0 mm 0.00 in0.0 mm
05:20 AM 21.4°F-5.9°C 15.6°F-9.1°C 78% 3.5 mph N5.6 kmh N 6.9 mph11.1 kmh 30.19 in1022.4 mb - 0.00 in0.0 mm 0.00 in0.0 mm
05:15 AM 21.7°F-5.7°C 15.3°F-9.3°C 76% 4.6 mph NNW7.4 kmh NNW 3.5 mph5.6 kmh 30.19 in1022.4 mb - 0.00 in0.0 mm 0.00 in0.0 mm
05:10 AM 21.9°F-5.6°C 15.5°F-9.2°C 76% 5.8 mph NW9.3 kmh NW 4.6 mph7.4 kmh 30.18 in1022.0 mb - 0.00 in0.0 mm 0.00 in0.0 mm
05:00 AM 22.3°F-5.4°C 15.6°F-9.1°C 75% 6.9 mph NW11.1 kmh NW 8.1 mph13.0 kmh 30.18 in1022.0 mb - 0.00 in0.0 mm 0.00 in0.0 mm
04:55 AM 22.3°F-5.4°C 15.6°F-9.1°C 75% 6.9 mph W11.1 kmh W 9.2 mph14.8 kmh 30.17 in1021.7 mb - 0.00 in0.0 mm 0.00 in0.0 mm
04:50 AM 22.5°F-5.3°C 15.7°F-9.1°C 75% 6.9 mph NW11.1 kmh NW 10.4 mph16.7 kmh 30.17 in1021.7 mb - 0.00 in0.0 mm 0.00 in0.0 mm
04:45 AM 22.5°F-5.3°C 15.7°F-9.1°C 75% 5.8 mph W9.3 kmh W 8.1 mph13.0 kmh 30.17 in1021.7 mb - 0.00 in0.0 mm 0.00 in0.0 mm
04:40 AM 22.5°F-5.3°C 15.7°F-9.1°C 75% 5.8 mph NW9.3 kmh NW 5.8 mph9.3 kmh 30.17 in1021.7 mb - 0.00 in0.0 mm 0.00 in0.0 mm
04:35 AM 22.8°F-5.1°C 16.1°F-8.8°C 75% 8.1 mph NNW13.0 kmh NNW 8.1 mph13.0 kmh 30.17 in1021.7 mb - 0.00 in0.0 mm 0.00 in0.0 mm
04:30 AM 23.2°F-4.9°C 16.4°F-8.7°C 75% 8.1 mph NW13.0 kmh NW 11.5 mph18.5 kmh 30.17 in1021.7 mb - 0.00 in0.0 mm 0.00 in0.0 mm
04:25 AM 23.4°F-4.8°C 16.6°F-8.6°C 75% 6.9 mph WNW11.1 kmh WNW 9.2 mph14.8 kmh 30.16 in1021.3 mb - 0.00 in0.0 mm 0.00 in0.0 mm
04:20 AM 23.7°F-4.6°C 17.0°F-8.3°C 75% 5.8 mph NW9.3 kmh NW 6.9 mph11.1 kmh 30.16 in1021.3 mb - 0.00 in0.0 mm 0.00 in0.0 mm
04:15 AM 23.7°F-4.6°C 16.6°F-8.6°C 74% 5.8 mph WNW9.3 kmh WNW 6.9 mph11.1 kmh 30.16 in1021.3 mb - 0.00 in0.0 mm 0.00 in0.0 mm
04:10 AM 24.3°F-4.3°C 17.2°F-8.2°C 74% 8.1 mph W13.0 kmh W 5.8 mph9.3 kmh 30.16 in1021.3 mb - 0.00 in0.0 mm 0.00 in0.0 mm
04:00 AM 24.9°F-3.9°C 17.5°F-8.1°C 73% 11.5 mph WNW18.5 kmh WNW 15.0 mph24.1 kmh 30.15 in1021.0 mb - 0.00 in0.0 mm 0.00 in0.0 mm
03:55 AM 25.3°F-3.7°C 18.2°F-7.7°C 74% 6.9 mph NW11.1 kmh NW 11.5 mph18.5 kmh 30.14 in1020.7 mb - 0.00 in0.0 mm 0.00 in0.0 mm
03:50 AM 25.9°F-3.4°C 19.0°F-7.2°C 75% 5.8 mph NW9.3 kmh NW 9.2 mph14.8 kmh 30.14 in1020.7 mb - 0.00 in0.0 mm 0.00 in0.0 mm
03:45 AM 26.2°F-3.2°C 19.4°F-7.0°C 75% 8.1 mph NW13.0 kmh NW 9.2 mph14.8 kmh 30.14 in1020.7 mb - 0.00 in0.0 mm 0.00 in0.0 mm
03:40 AM 26.2°F-3.2°C 19.4°F-7.0°C 75% 6.9 mph NW11.1 kmh NW 11.5 mph18.5 kmh 30.14 in1020.7 mb - 0.00 in0.0 mm 0.00 in0.0 mm
03:35 AM 26.5°F-3.1°C 19.7°F-6.8°C 75% 5.8 mph WNW9.3 kmh WNW 11.5 mph18.5 kmh 30.13 in1020.3 mb - 0.00 in0.0 mm 0.00 in0.0 mm
03:30 AM 26.8°F-2.9°C 19.9°F-6.7°C 75% 9.2 mph WNW14.8 kmh WNW 10.4 mph16.7 kmh 30.13 in1020.3 mb - 0.00 in0.0 mm 0.00 in0.0 mm
03:25 AM 26.8°F-2.9°C 19.9°F-6.7°C 75% 8.1 mph WNW13.0 kmh WNW 11.5 mph18.5 kmh 30.12 in1020.0 mb - 0.00 in0.0 mm 0.00 in0.0 mm
03:20 AM 27.1°F-2.7°C 20.3°F-6.5°C 75% 9.2 mph NW14.8 kmh NW 11.5 mph18.5 kmh 30.12 in1020.0 mb - 0.00 in0.0 mm 0.00 in0.0 mm
03:15 AM 27.6°F-2.4°C 21.0°F-6.1°C 76% 9.2 mph NNW14.8 kmh NNW 13.8 mph22.2 kmh 30.11 in1019.6 mb - 0.00 in0.0 mm 0.00 in0.0 mm
03:10 AM 27.9°F-2.3°C 22.2°F-5.4°C 79% 10.4 mph NNW16.7 kmh NNW 10.4 mph16.7 kmh 30.12 in1020.0 mb - 0.00 in0.0 mm 0.00 in0.0 mm
03:00 AM 28.8°F-1.8°C 23.4°F-4.8°C 80% 6.9 mph WNW11.1 kmh WNW 9.2 mph14.8 kmh 30.10 in1019.3 mb - 0.00 in0.0 mm 0.00 in0.0 mm
02:55 AM 28.8°F-1.8°C 23.4°F-4.8°C 80% 4.6 mph NNW7.4 kmh NNW 6.9 mph11.1 kmh 30.10 in1019.3 mb - 0.00 in0.0 mm 0.00 in0.0 mm
02:50 AM 28.8°F-1.8°C 23.4°F-4.8°C 80% 5.8 mph W9.3 kmh W 4.6 mph7.4 kmh 30.10 in1019.3 mb - 0.00 in0.0 mm 0.00 in0.0 mm
02:45 AM 28.8°F-1.8°C 23.7°F-4.6°C 81% 5.8 mph NNW9.3 kmh NNW 8.1 mph13.0 kmh 30.10 in1019.3 mb - 0.00 in0.0 mm 0.00 in0.0 mm
02:40 AM 28.8°F-1.8°C 23.7°F-4.6°C 81% 6.9 mph WSW11.1 kmh WSW 9.2 mph14.8 kmh 30.10 in1019.3 mb - 0.00 in0.0 mm 0.00 in0.0 mm
02:35 AM 28.8°F-1.8°C 23.7°F-4.6°C 81% 5.8 mph W9.3 kmh W 8.1 mph13.0 kmh 30.09 in1019.0 mb - 0.00 in0.0 mm 0.00 in0.0 mm
02:30 AM 28.8°F-1.8°C 23.7°F-4.6°C 81% 4.6 mph W7.4 kmh W 10.4 mph16.7 kmh 30.09 in1019.0 mb - 0.00 in0.0 mm 0.00 in0.0 mm
02:25 AM 29.1°F-1.6°C 24.0°F-4.4°C 81% 5.8 mph W9.3 kmh W 10.4 mph16.7 kmh 30.09 in1019.0 mb - 0.00 in0.0 mm 0.00 in0.0 mm
02:20 AM 29.1°F-1.6°C 24.0°F-4.4°C 81% 5.8 mph W9.3 kmh W 9.2 mph14.8 kmh 30.09 in1019.0 mb - 0.00 in0.0 mm 0.00 in0.0 mm
02:15 AM 29.1°F-1.6°C 24.0°F-4.4°C 81% 5.8 mph W9.3 kmh W 4.6 mph7.4 kmh 30.08 in1018.6 mb - 0.00 in0.0 mm 0.00 in0.0 mm
02:10 AM 29.1°F-1.6°C 24.0°F-4.4°C 81% 8.1 mph W13.0 kmh W 9.2 mph14.8 kmh 30.08 in1018.6 mb - 0.00 in0.0 mm 0.00 in0.0 mm
02:00 AM 29.1°F-1.6°C 24.6°F-4.1°C 83% 5.8 mph W9.3 kmh W 3.5 mph5.6 kmh 30.08 in1018.6 mb - 0.00 in0.0 mm 0.00 in0.0 mm
01:55 AM 29.1°F-1.6°C 24.6°F-4.1°C 83% 4.6 mph W7.4 kmh W 4.6 mph7.4 kmh 30.07 in1018.3 mb - 0.00 in0.0 mm 0.00 in0.0 mm
01:50 AM 29.1°F-1.6°C 24.6°F-4.1°C 83% 4.6 mph W7.4 kmh W 4.6 mph7.4 kmh 30.07 in1018.3 mb - 0.00 in0.0 mm 0.00 in0.0 mm
01:45 AM 29.1°F-1.6°C 24.6°F-4.1°C 83% 6.9 mph W11.1 kmh W 6.9 mph11.1 kmh 30.07 in1018.3 mb - 0.00 in0.0 mm 0.00 in0.0 mm
01:40 AM 29.1°F-1.6°C 24.6°F-4.1°C 83% 5.8 mph W9.3 kmh W 8.1 mph13.0 kmh 30.06 in1017.9 mb - 0.00 in0.0 mm 0.00 in0.0 mm
01:35 AM 29.2°F-1.6°C 24.7°F-4.1°C 83% 5.8 mph W9.3 kmh W 8.1 mph13.0 kmh 30.06 in1017.9 mb - 0.00 in0.0 mm 0.00 in0.0 mm
01:30 AM 29.5°F-1.4°C 24.4°F-4.2°C 81% 4.6 mph W7.4 kmh W 5.8 mph9.3 kmh 30.06 in1017.9 mb - 0.00 in0.0 mm 0.00 in0.0 mm
01:25 AM 29.5°F-1.4°C 24.4°F-4.2°C 81% 6.9 mph W11.1 kmh W 8.1 mph13.0 kmh 30.04 in1017.3 mb - 0.00 in0.0 mm 0.00 in0.0 mm
01:20 AM 29.5°F-1.4°C 24.4°F-4.2°C 81% 5.8 mph W9.3 kmh W 9.2 mph14.8 kmh 30.04 in1017.3 mb - 0.00 in0.0 mm 0.00 in0.0 mm
01:15 AM 29.5°F-1.4°C 24.4°F-4.2°C 81% 6.9 mph WSW11.1 kmh WSW 3.5 mph5.6 kmh 30.04 in1017.3 mb - 0.00 in0.0 mm 0.00 in0.0 mm
01:10 AM 29.5°F-1.4°C 25.0°F-3.9°C 83% 5.8 mph W9.3 kmh W 8.1 mph13.0 kmh 30.04 in1017.3 mb - 0.00 in0.0 mm 0.00 in0.0 mm
01:00 AM 29.8°F-1.2°C 25.3°F-3.7°C 83% 4.6 mph WNW7.4 kmh WNW 3.5 mph5.6 kmh 30.02 in1016.6 mb - 0.00 in0.0 mm 0.00 in0.0 mm
12:55 AM 29.8°F-1.2°C 25.3°F-3.7°C 83% 6.9 mph WNW11.1 kmh WNW 9.2 mph14.8 kmh 30.02 in1016.6 mb - 0.00 in0.0 mm 0.00 in0.0 mm
12:50 AM 29.8°F-1.2°C 25.3°F-3.7°C 83% 6.9 mph W11.1 kmh W 11.5 mph18.5 kmh 30.02 in1016.6 mb - 0.00 in0.0 mm 0.00 in0.0 mm
12:45 AM 30.0°F-1.1°C 25.5°F-3.6°C 83% 6.9 mph W11.1 kmh W 6.9 mph11.1 kmh 30.02 in1016.6 mb - 0.00 in0.0 mm 0.00 in0.0 mm
12:40 AM 30.0°F-1.1°C 25.5°F-3.6°C 83% 6.9 mph W11.1 kmh W 5.8 mph9.3 kmh 30.02 in1016.6 mb - 0.00 in0.0 mm 0.00 in0.0 mm
12:35 AM 30.0°F-1.1°C 24.9°F-3.9°C 81% 6.9 mph WNW11.1 kmh WNW 8.1 mph13.0 kmh 30.02 in1016.6 mb - 0.00 in0.0 mm 0.00 in0.0 mm
12:30 AM 30.0°F-1.1°C 25.5°F-3.6°C 83% 6.9 mph W11.1 kmh W 13.8 mph22.2 kmh 30.01 in1016.3 mb - 0.00 in0.0 mm 0.00 in0.0 mm
12:25 AM 30.0°F-1.1°C 25.5°F-3.6°C 83% 8.1 mph WNW13.0 kmh WNW 15.0 mph24.1 kmh 30.01 in1016.3 mb - 0.00 in0.0 mm 0.00 in0.0 mm
12:20 AM 30.0°F-1.1°C 25.5°F-3.6°C 83% 4.6 mph W7.4 kmh W 5.8 mph9.3 kmh 30.01 in1016.3 mb - 0.00 in0.0 mm 0.00 in0.0 mm
12:15 AM 30.0°F-1.1°C 25.5°F-3.6°C 83% 5.8 mph W9.3 kmh W 6.9 mph11.1 kmh 30.01 in1016.3 mb - 0.00 in0.0 mm 0.00 in0.0 mm
12:10 AM 30.4°F-0.9°C 25.2°F-3.8°C 81% 6.9 mph W11.1 kmh W 5.8 mph9.3 kmh 30.01 in1016.3 mb - 0.00 in0.0 mm 0.00 in0.0 mm
12:00 AM 30.4°F-0.9°C 25.2°F-3.8°C 81% 9.2 mph W14.8 kmh W 10.4 mph16.7 kmh 30.01 in1016.3 mb - 0.00 in0.0 mm 0.00 in0.0 mm